createdAt,value
2019-06-20T00:00:14.346Z,22.50
2019-06-20T00:01:14.313Z,22.48
2019-06-20T00:02:14.302Z,22.45
2019-06-20T00:03:14.279Z,22.44
2019-06-20T00:04:14.283Z,22.44
2019-06-20T00:05:14.295Z,22.43
2019-06-20T00:06:14.247Z,22.41
2019-06-20T00:07:14.254Z,22.39
2019-06-20T00:08:14.229Z,22.36
2019-06-20T00:09:14.218Z,22.36
2019-06-20T00:10:14.205Z,22.33
2019-06-20T00:11:14.240Z,22.32
2019-06-20T00:12:14.201Z,22.32
2019-06-20T00:13:14.178Z,22.32
2019-06-20T00:14:14.168Z,22.30
2019-06-20T00:15:14.172Z,22.32
2019-06-20T00:16:14.156Z,22.32
2019-06-20T00:17:14.157Z,22.29
2019-06-20T00:18:14.123Z,22.29
2019-06-20T00:19:14.177Z,22.26
2019-06-20T00:20:14.112Z,22.26
2019-06-20T00:21:14.089Z,22.26
2019-06-20T00:22:14.116Z,22.28
2019-06-20T00:23:14.083Z,22.25
2019-06-20T00:24:14.060Z,22.25
2019-06-20T00:25:14.062Z,22.28
2019-06-20T00:26:14.049Z,22.26
2019-06-20T00:27:14.041Z,22.28
2019-06-20T00:28:14.056Z,22.28
2019-06-20T00:29:14.037Z,22.28
2019-06-20T00:30:13.989Z,22.29
2019-06-20T00:31:13.995Z,22.30
2019-06-20T00:32:13.962Z,22.32
2019-06-20T00:33:13.959Z,22.35
2019-06-20T00:34:13.969Z,22.30
2019-06-20T00:35:13.968Z,22.29
2019-06-20T00:36:13.954Z,22.28
2019-06-20T00:37:13.931Z,22.29
2019-06-20T00:38:13.903Z,22.28
2019-06-20T00:39:13.893Z,22.26
2019-06-20T00:40:13.876Z,22.26
2019-06-20T00:41:13.872Z,22.26
2019-06-20T00:42:13.899Z,22.26
2019-06-20T00:43:17.794Z,22.25
2019-06-20T00:44:13.840Z,22.22
2019-06-20T00:45:13.824Z,22.22
2019-06-20T00:46:13.825Z,22.18
2019-06-20T00:47:13.819Z,22.15
2019-06-20T00:48:13.882Z,22.14
2019-06-20T00:49:13.779Z,22.11
2019-06-20T00:50:13.778Z,22.10
2019-06-20T00:51:13.770Z,22.10
2019-06-20T00:52:13.786Z,22.07
2019-06-20T00:53:13.750Z,22.08
2019-06-20T00:54:13.726Z,22.07
2019-06-20T00:55:13.708Z,22.04
2019-06-20T00:56:13.722Z,22.06
2019-06-20T00:57:13.699Z,22.02
2019-06-20T00:58:13.733Z,21.98
2019-06-20T00:59:13.670Z,21.96
2019-06-20T01:00:13.675Z,21.95
2019-06-20T01:01:13.647Z,21.92
2019-06-20T01:02:13.657Z,21.88
2019-06-20T01:03:13.631Z,21.88
2019-06-20T01:04:13.663Z,21.82
2019-06-20T01:05:13.645Z,21.83
2019-06-20T01:06:13.596Z,21.83
2019-06-20T01:07:13.579Z,21.82
2019-06-20T01:08:13.574Z,21.82
2019-06-20T01:09:13.582Z,21.80
2019-06-20T01:10:13.567Z,21.82
2019-06-20T01:11:13.567Z,21.82
2019-06-20T01:12:13.533Z,21.79
2019-06-20T01:13:13.513Z,21.77
2019-06-20T01:14:13.514Z,21.76
2019-06-20T01:15:13.505Z,21.70
2019-06-20T01:16:13.486Z,21.70
2019-06-20T01:17:13.572Z,21.69
2019-06-20T01:18:13.463Z,21.70
2019-06-20T01:19:13.453Z,21.67
2019-06-20T01:20:13.439Z,21.69
2019-06-20T01:21:13.503Z,21.72
2019-06-20T01:22:13.429Z,21.70
2019-06-20T01:23:13.409Z,21.67
2019-06-20T01:24:13.393Z,21.69
2019-06-20T01:25:13.393Z,21.69
2019-06-20T01:26:13.370Z,21.66
2019-06-20T01:27:13.383Z,21.67
2019-06-20T01:28:13.359Z,21.64
2019-06-20T01:29:13.339Z,21.61
2019-06-20T01:30:13.335Z,21.57
2019-06-20T01:31:13.323Z,21.52
2019-06-20T01:32:13.308Z,21.50
2019-06-20T01:33:13.342Z,21.46
2019-06-20T01:34:13.288Z,21.46
2019-06-20T01:35:13.279Z,21.45
2019-06-20T01:36:13.271Z,21.45
2019-06-20T01:37:13.327Z,21.42
2019-06-20T01:38:13.258Z,21.39
2019-06-20T01:39:13.234Z,21.37
2019-06-20T01:40:13.211Z,21.35
2019-06-20T01:41:13.208Z,21.30
2019-06-20T01:42:13.198Z,21.30
2019-06-20T01:43:13.256Z,21.29
2019-06-20T01:44:13.199Z,21.24
2019-06-20T01:45:13.175Z,21.22
2019-06-20T01:46:13.157Z,21.21
2019-06-20T01:47:13.139Z,21.17
2019-06-20T01:48:13.126Z,21.15
2019-06-20T01:49:13.145Z,21.15
2019-06-20T01:50:13.115Z,21.15
2019-06-20T01:51:13.153Z,21.15
2019-06-20T01:52:13.093Z,21.14
2019-06-20T01:53:13.094Z,21.12
2019-06-20T01:54:13.129Z,21.11
2019-06-20T01:55:13.060Z,21.09
2019-06-20T01:56:13.070Z,21.07
2019-06-20T01:57:13.031Z,21.03
2019-06-20T01:58:13.046Z,21.05
2019-06-20T01:59:13.011Z,20.99
2019-06-20T02:00:13.008Z,20.90
2019-06-20T02:01:12.985Z,20.82
2019-06-20T02:02:13.015Z,20.75
2019-06-20T02:03:12.973Z,20.70
2019-06-20T02:04:12.968Z,20.65
2019-06-20T02:05:12.940Z,20.67
2019-06-20T02:06:12.927Z,20.67
2019-06-20T02:07:12.932Z,20.63
2019-06-20T02:08:12.940Z,20.65
2019-06-20T02:09:12.902Z,20.62
2019-06-20T02:10:12.975Z,20.58
2019-06-20T02:11:12.875Z,20.58
2019-06-20T02:12:12.879Z,20.58
2019-06-20T02:13:12.864Z,20.58
2019-06-20T02:14:12.861Z,20.56
2019-06-20T02:15:12.820Z,20.58
2019-06-20T02:16:12.828Z,20.56
2019-06-20T02:17:12.813Z,20.58
2019-06-20T02:18:12.797Z,20.58
2019-06-20T02:19:12.804Z,20.58
2019-06-20T02:20:12.893Z,20.56
2019-06-20T02:21:12.771Z,20.56
2019-06-20T02:22:12.755Z,20.58
2019-06-20T02:23:12.738Z,20.56
2019-06-20T02:24:12.730Z,20.50
2019-06-20T02:25:12.744Z,20.44
2019-06-20T02:26:12.732Z,20.41
2019-06-20T02:27:12.715Z,20.37
2019-06-20T02:28:12.694Z,20.31
2019-06-20T02:29:12.756Z,20.28
2019-06-20T02:30:12.689Z,20.26
2019-06-20T02:31:12.658Z,20.26
2019-06-20T02:32:12.645Z,20.25
2019-06-20T02:33:12.660Z,20.26
2019-06-20T02:34:12.648Z,20.29
2019-06-20T02:35:12.606Z,20.29
2019-06-20T02:36:12.618Z,20.29
2019-06-20T02:37:12.586Z,20.28
2019-06-20T02:38:12.573Z,20.26
2019-06-20T02:39:12.569Z,20.19
2019-06-20T02:40:12.582Z,20.18
2019-06-20T02:41:12.556Z,20.18
2019-06-20T02:42:12.544Z,20.14
2019-06-20T02:43:12.527Z,20.14
2019-06-20T02:44:29.072Z,20.14
2019-06-20T02:45:13.589Z,20.18
2019-06-20T02:46:12.566Z,20.16
2019-06-20T02:47:12.485Z,20.14
2019-06-20T02:48:12.511Z,20.13
2019-06-20T02:49:12.460Z,20.10
2019-06-20T02:50:12.488Z,20.11
2019-06-20T02:51:12.442Z,20.09
2019-06-20T02:52:12.424Z,20.10
2019-06-20T02:53:12.416Z,20.07
2019-06-20T02:54:12.410Z,20.07
2019-06-20T02:55:12.418Z,20.07
2019-06-20T02:56:12.389Z,20.10
2019-06-20T02:57:12.370Z,20.09
2019-06-20T02:58:12.363Z,20.07
2019-06-20T02:59:12.357Z,20.09
2019-06-20T03:00:12.433Z,20.10
2019-06-20T03:01:12.325Z,20.07
2019-06-20T03:02:12.311Z,20.09
2019-06-20T03:03:12.321Z,20.07
2019-06-20T03:04:12.293Z,20.07
2019-06-20T03:05:12.280Z,20.07
2019-06-20T03:06:12.262Z,20.06
2019-06-20T03:07:12.259Z,20.07
2019-06-20T03:08:12.255Z,20.04
2019-06-20T03:09:12.263Z,20.04
2019-06-20T03:10:12.228Z,20.02
2019-06-20T03:11:12.214Z,19.94
2019-06-20T03:12:12.197Z,19.91
2019-06-20T03:13:12.219Z,19.91
2019-06-20T03:14:12.190Z,19.89
2019-06-20T03:15:12.173Z,19.89
2019-06-20T03:16:12.159Z,19.89
2019-06-20T03:17:12.179Z,19.88
2019-06-20T03:18:12.149Z,19.88
2019-06-20T03:19:12.124Z,19.88
2019-06-20T03:20:12.136Z,19.86
2019-06-20T03:21:12.108Z,19.86
2019-06-20T03:22:12.099Z,19.86
2019-06-20T03:23:12.120Z,19.84
2019-06-20T03:24:12.071Z,19.82
2019-06-20T03:25:12.061Z,19.81
2019-06-20T03:26:12.047Z,19.79
2019-06-20T03:27:12.058Z,19.82
2019-06-20T03:28:12.033Z,19.82
2019-06-20T03:29:12.208Z,19.81
2019-06-20T03:30:12.061Z,19.76
2019-06-20T03:31:12.010Z,19.71
2019-06-20T03:32:11.979Z,19.70
2019-06-20T03:33:12.142Z,19.71
2019-06-20T03:34:11.963Z,19.70
2019-06-20T03:35:11.951Z,19.69
2019-06-20T03:36:11.966Z,19.70
2019-06-20T03:37:11.921Z,19.70
2019-06-20T03:38:11.923Z,19.69
2019-06-20T03:39:11.915Z,19.66
2019-06-20T03:40:11.894Z,19.66
2019-06-20T03:41:11.889Z,19.63
2019-06-20T03:42:11.897Z,19.62
2019-06-20T03:43:11.854Z,19.58
2019-06-20T03:44:11.884Z,19.54
2019-06-20T03:45:11.867Z,19.51
2019-06-20T03:46:11.826Z,19.49
2019-06-20T03:47:11.821Z,19.48
2019-06-20T03:48:11.835Z,19.44
2019-06-20T03:49:11.795Z,19.37
2019-06-20T03:50:11.784Z,19.33
2019-06-20T03:51:11.778Z,19.29
2019-06-20T03:52:11.773Z,19.24
2019-06-20T03:53:11.748Z,19.22
2019-06-20T03:54:11.778Z,19.19
2019-06-20T03:55:11.736Z,19.14
2019-06-20T03:56:11.723Z,19.12
2019-06-20T03:57:11.716Z,19.09
2019-06-20T03:58:11.702Z,19.07
2019-06-20T03:59:11.682Z,19.04
2019-06-20T04:00:11.735Z,19.08
2019-06-20T04:01:11.663Z,19.11
2019-06-20T04:02:11.653Z,19.14
2019-06-20T04:03:11.647Z,19.15
2019-06-20T04:04:11.643Z,19.15
2019-06-20T04:05:11.623Z,19.11
2019-06-20T04:06:11.626Z,19.09
2019-06-20T04:07:11.592Z,19.09
2019-06-20T04:08:11.586Z,19.08
2019-06-20T04:09:11.579Z,19.11
2019-06-20T04:10:11.611Z,19.07
2019-06-20T04:11:11.559Z,18.99
2019-06-20T04:12:11.542Z,18.99
2019-06-20T04:13:11.591Z,19.04
2019-06-20T04:14:11.576Z,19.04
2019-06-20T04:15:19.189Z,19.07
2019-06-20T04:16:12.559Z,19.08
2019-06-20T04:17:11.509Z,19.07
2019-06-20T04:18:11.486Z,19.04
2019-06-20T04:19:11.468Z,18.98
2019-06-20T04:20:11.488Z,18.98
2019-06-20T04:21:11.454Z,19.00
2019-06-20T04:22:11.453Z,19.04
2019-06-20T04:23:11.432Z,19.12
2019-06-20T04:24:11.407Z,19.18
2019-06-20T04:25:11.393Z,19.26
2019-06-20T04:26:11.631Z,19.31
2019-06-20T04:27:11.371Z,19.39
2019-06-20T04:28:11.364Z,19.48
2019-06-20T04:29:11.374Z,19.59
2019-06-20T04:30:11.341Z,19.73
2019-06-20T04:31:11.355Z,19.85
2019-06-20T04:32:11.340Z,20.02
2019-06-20T04:33:11.311Z,20.25
2019-06-20T04:34:11.305Z,20.50
2019-06-20T04:35:11.291Z,20.69
2019-06-20T04:36:11.283Z,20.90
2019-06-20T04:37:11.324Z,21.07
2019-06-20T04:38:11.272Z,21.18
2019-06-20T04:39:19.186Z,21.14
2019-06-20T04:40:12.238Z,20.82
2019-06-20T04:41:11.232Z,20.59
2019-06-20T04:42:11.200Z,20.47
2019-06-20T04:43:11.227Z,20.50
2019-06-20T04:44:11.186Z,20.37
2019-06-20T04:45:11.174Z,20.14
2019-06-20T04:46:11.173Z,19.95
2019-06-20T04:47:11.151Z,19.89
2019-06-20T04:48:11.160Z,19.84
2019-06-20T04:49:11.167Z,19.85
2019-06-20T04:50:11.155Z,19.88
2019-06-20T04:51:11.130Z,19.88
2019-06-20T04:52:11.114Z,19.82
2019-06-20T04:53:11.102Z,19.82
2019-06-20T04:54:11.153Z,19.82
2019-06-20T04:55:11.072Z,19.81
2019-06-20T04:56:11.053Z,19.77
2019-06-20T04:57:11.048Z,19.81
2019-06-20T04:58:11.034Z,19.85
2019-06-20T04:59:11.046Z,19.92
2019-06-20T05:00:11.029Z,19.96
2019-06-20T05:01:11.022Z,19.95
2019-06-20T05:02:14.738Z,20.03
2019-06-20T05:03:10.969Z,20.10
2019-06-20T05:04:10.974Z,20.11
2019-06-20T05:05:10.977Z,20.10
2019-06-20T05:06:10.964Z,20.14
2019-06-20T05:07:10.931Z,20.16
2019-06-20T05:08:10.959Z,20.18
2019-06-20T05:09:10.909Z,20.10
2019-06-20T05:10:10.905Z,20.00
2019-06-20T05:11:10.889Z,20.02
2019-06-20T05:12:10.876Z,20.04
2019-06-20T05:13:10.872Z,20.10
2019-06-20T05:14:10.889Z,20.16
2019-06-20T05:15:10.856Z,20.16
2019-06-20T05:16:10.838Z,20.16
2019-06-20T05:17:10.841Z,20.11
2019-06-20T05:18:10.845Z,20.13
2019-06-20T05:19:10.808Z,20.11
2019-06-20T05:20:10.831Z,20.10
2019-06-20T05:21:10.800Z,20.09
2019-06-20T05:22:10.798Z,20.14
2019-06-20T05:23:10.780Z,20.13
2019-06-20T05:24:10.770Z,20.16
2019-06-20T05:25:10.756Z,20.18
2019-06-20T05:26:10.756Z,20.19
2019-06-20T05:27:10.742Z,20.16
2019-06-20T05:28:10.701Z,20.10
2019-06-20T05:29:10.690Z,20.07
2019-06-20T05:30:10.677Z,20.03
2019-06-20T05:31:10.690Z,19.94
2019-06-20T05:32:10.672Z,19.92
2019-06-20T05:33:10.661Z,19.88
2019-06-20T05:34:10.636Z,19.85
2019-06-20T05:35:10.643Z,19.81
2019-06-20T05:36:10.703Z,19.76
2019-06-20T05:37:10.598Z,19.71
2019-06-20T05:38:10.749Z,19.73
2019-06-20T05:39:10.610Z,19.74
2019-06-20T05:40:10.600Z,19.70
2019-06-20T05:41:10.576Z,19.76
2019-06-20T05:42:10.543Z,19.76
2019-06-20T05:43:10.743Z,19.77
2019-06-20T05:44:10.527Z,19.76
2019-06-20T05:45:10.512Z,19.77
2019-06-20T05:46:11.324Z,19.81
2019-06-20T05:47:13.601Z,19.82
2019-06-20T05:48:10.504Z,19.84
2019-06-20T05:49:10.480Z,19.79
2019-06-20T05:50:10.489Z,19.84
2019-06-20T05:51:10.453Z,19.89
2019-06-20T05:52:10.434Z,19.94
2019-06-20T05:53:10.701Z,19.99
2019-06-20T05:54:10.404Z,20.09
2019-06-20T05:55:10.408Z,20.14
2019-06-20T05:56:10.480Z,20.13
2019-06-20T05:57:10.568Z,20.18
2019-06-20T05:58:10.399Z,20.21
2019-06-20T05:59:10.356Z,20.21
2019-06-20T06:00:10.376Z,20.28
2019-06-20T06:01:10.341Z,20.36
2019-06-20T06:02:10.318Z,20.40
2019-06-20T06:03:13.597Z,20.43
2019-06-20T06:04:10.302Z,20.50
2019-06-20T06:05:10.328Z,20.52
2019-06-20T06:06:10.294Z,20.56
2019-06-20T06:07:13.943Z,20.62
2019-06-20T06:08:10.258Z,20.67
2019-06-20T06:09:10.247Z,20.72
2019-06-20T06:10:10.237Z,20.74
2019-06-20T06:11:10.227Z,20.77
2019-06-20T06:12:10.304Z,20.77
2019-06-20T06:13:10.205Z,20.69
2019-06-20T06:14:10.198Z,20.72
2019-06-20T06:15:10.202Z,20.72
2019-06-20T06:16:25.343Z,20.84
2019-06-20T06:17:11.178Z,20.82
2019-06-20T06:18:10.163Z,20.80
2019-06-20T06:19:10.143Z,20.87
2019-06-20T06:20:10.131Z,20.96
2019-06-20T06:21:10.190Z,21.11
2019-06-20T06:22:10.136Z,21.20
2019-06-20T06:23:10.125Z,21.17
2019-06-20T06:24:10.108Z,21.24
2019-06-20T06:25:10.095Z,21.35
2019-06-20T06:26:10.127Z,21.39
2019-06-20T06:27:10.048Z,21.25
2019-06-20T06:28:12.383Z,21.20
2019-06-20T06:29:10.029Z,21.09
2019-06-20T06:30:10.016Z,20.99
2019-06-20T06:31:10.005Z,20.97
2019-06-20T06:32:10.053Z,20.99
2019-06-20T06:33:09.982Z,21.03
2019-06-20T06:34:09.984Z,20.99
2019-06-20T06:35:09.982Z,21.05
2019-06-20T06:36:09.963Z,21.11
2019-06-20T06:37:09.985Z,21.21
2019-06-20T06:38:09.936Z,21.29
2019-06-20T06:39:09.923Z,21.35
2019-06-20T06:40:09.906Z,21.50
2019-06-20T06:41:09.896Z,21.58
2019-06-20T06:42:09.905Z,21.69
2019-06-20T06:43:09.903Z,21.75
2019-06-20T06:44:09.870Z,21.80
2019-06-20T06:45:09.855Z,21.85
2019-06-20T06:46:09.849Z,21.95
2019-06-20T06:47:09.853Z,21.91
2019-06-20T06:48:09.904Z,21.83
2019-06-20T06:49:09.877Z,21.89
2019-06-20T06:50:09.790Z,21.99
2019-06-20T06:51:09.787Z,22.04
2019-06-20T06:52:09.798Z,22.13
2019-06-20T06:53:09.781Z,22.02
2019-06-20T06:54:09.747Z,21.95
2019-06-20T06:55:09.755Z,22.04
2019-06-20T06:56:09.767Z,22.11
2019-06-20T06:57:09.722Z,22.15
2019-06-20T06:58:09.708Z,22.20
2019-06-20T06:59:09.711Z,22.10
2019-06-20T07:00:09.678Z,22.14
2019-06-20T07:01:10.370Z,22.17
2019-06-20T07:02:09.702Z,22.26
2019-06-20T07:03:09.674Z,22.38
2019-06-20T07:04:09.676Z,22.33
2019-06-20T07:05:09.657Z,22.28
2019-06-20T07:06:09.645Z,22.38
2019-06-20T07:07:09.629Z,22.47
2019-06-20T07:08:09.692Z,22.45
2019-06-20T07:09:09.598Z,22.53
2019-06-20T07:10:09.574Z,22.63
2019-06-20T07:11:09.582Z,22.87
2019-06-20T07:12:09.558Z,23.02
2019-06-20T07:13:09.582Z,23.21
2019-06-20T07:14:09.537Z,23.43
2019-06-20T07:15:09.521Z,23.51
2019-06-20T07:16:09.514Z,23.46
2019-06-20T07:17:09.496Z,23.55
2019-06-20T07:18:09.502Z,23.66
2019-06-20T07:19:09.511Z,23.69
2019-06-20T07:20:09.467Z,23.78
2019-06-20T07:21:09.571Z,23.84
2019-06-20T07:22:09.444Z,23.95
2019-06-20T07:23:09.445Z,23.80
2019-06-20T07:24:09.448Z,23.80
2019-06-20T07:25:09.470Z,23.87
2019-06-20T07:26:09.405Z,23.95
2019-06-20T07:27:09.393Z,23.62
2019-06-20T07:28:09.380Z,23.39
2019-06-20T07:29:09.382Z,23.24
2019-06-20T07:30:09.391Z,23.28
2019-06-20T07:31:09.377Z,23.40
2019-06-20T07:32:09.345Z,23.39
2019-06-20T07:33:09.352Z,23.43
2019-06-20T07:34:09.329Z,23.43
2019-06-20T07:35:09.309Z,23.41
2019-06-20T07:36:09.300Z,23.40
2019-06-20T07:37:09.272Z,23.47
2019-06-20T07:38:09.289Z,23.51
2019-06-20T07:39:09.261Z,23.44
2019-06-20T07:40:09.250Z,23.46
2019-06-20T07:41:09.226Z,23.43
2019-06-20T07:42:09.225Z,23.36
2019-06-20T07:43:09.212Z,23.41
2019-06-20T07:44:09.247Z,23.31
2019-06-20T07:45:09.204Z,23.27
2019-06-20T07:46:09.182Z,23.39
2019-06-20T07:47:17.700Z,23.37
2019-06-20T07:48:10.166Z,23.39
2019-06-20T07:49:09.181Z,23.46
2019-06-20T07:50:09.156Z,23.48
2019-06-20T07:51:09.134Z,23.43
2019-06-20T07:52:09.120Z,23.48
2019-06-20T07:53:09.116Z,23.63
2019-06-20T07:54:09.102Z,23.71
2019-06-20T07:55:09.084Z,23.76
2019-06-20T07:56:09.610Z,23.87
2019-06-20T07:57:09.076Z,23.92
2019-06-20T07:58:09.086Z,23.99
2019-06-20T07:59:09.036Z,24.08
2019-06-20T08:00:09.049Z,24.03
2019-06-20T08:01:09.016Z,23.88
2019-06-20T08:02:09.005Z,23.77
2019-06-20T08:03:09.041Z,23.63
2019-06-20T08:04:08.982Z,23.76
2019-06-20T08:05:08.970Z,23.77
2019-06-20T08:06:08.986Z,23.84
2019-06-20T08:07:08.953Z,23.86
2019-06-20T08:08:08.930Z,23.66
2019-06-20T08:09:08.952Z,23.65
2019-06-20T08:10:08.936Z,23.71
2019-06-20T08:11:08.899Z,23.81
2019-06-20T08:12:08.886Z,23.93
2019-06-20T08:13:08.876Z,24.02
2019-06-20T08:14:08.919Z,23.96
2019-06-20T08:15:15.195Z,23.87
2019-06-20T08:16:09.893Z,23.63
2019-06-20T08:17:08.841Z,23.71
2019-06-20T08:18:08.837Z,23.50
2019-06-20T08:19:08.807Z,23.54
2019-06-20T08:20:08.824Z,23.69
2019-06-20T08:21:08.809Z,23.86
2019-06-20T08:22:08.827Z,23.68
2019-06-20T08:23:08.786Z,23.50
2019-06-20T08:24:08.758Z,23.51
2019-06-20T08:25:08.794Z,23.59
2019-06-20T08:26:08.804Z,23.74
2019-06-20T08:27:08.743Z,23.92
2019-06-20T08:28:08.727Z,24.01
2019-06-20T08:29:20.121Z,24.06
2019-06-20T08:30:09.791Z,24.14
2019-06-20T08:31:08.684Z,24.02
2019-06-20T08:32:08.696Z,23.84
2019-06-20T08:33:11.844Z,23.71
2019-06-20T08:34:08.662Z,23.77
2019-06-20T08:35:08.661Z,23.95
2019-06-20T08:36:08.673Z,24.06
2019-06-20T08:37:08.616Z,24.17
2019-06-20T08:38:08.651Z,24.26
2019-06-20T08:39:08.599Z,24.38
2019-06-20T08:40:08.599Z,24.50
2019-06-20T08:41:08.588Z,24.39
2019-06-20T08:42:08.572Z,24.45
2019-06-20T08:43:08.615Z,24.53
2019-06-20T08:44:08.543Z,24.66
2019-06-20T08:45:08.548Z,24.70
2019-06-20T08:46:10.366Z,24.84
2019-06-20T08:47:08.514Z,25.03
2019-06-20T08:48:08.501Z,25.07
2019-06-20T08:49:08.546Z,25.21
2019-06-20T08:50:08.485Z,25.23
2019-06-20T08:51:08.470Z,25.32
2019-06-20T08:52:08.458Z,25.43
2019-06-20T08:53:08.454Z,25.44
2019-06-20T08:54:08.434Z,25.47
2019-06-20T08:55:08.489Z,25.46
2019-06-20T08:56:08.422Z,25.55
2019-06-20T08:57:08.413Z,25.25
2019-06-20T08:58:08.421Z,25.31
2019-06-20T08:59:20.677Z,25.46
2019-06-20T09:00:09.406Z,25.54
2019-06-20T09:02:08.457Z,25.62
2019-06-20T09:03:08.345Z,25.55
2019-06-20T09:04:08.351Z,25.60
2019-06-20T09:05:08.447Z,25.59
2019-06-20T09:06:08.315Z,25.47
2019-06-20T09:07:08.334Z,25.59
2019-06-20T09:08:11.336Z,25.68
2019-06-20T09:09:08.306Z,25.66
2019-06-20T09:10:08.267Z,25.75
2019-06-20T09:11:08.257Z,25.68
2019-06-20T09:12:08.249Z,25.62
2019-06-20T09:13:08.277Z,25.53
2019-06-20T09:14:08.242Z,25.51
2019-06-20T09:15:08.290Z,25.44
2019-06-20T09:16:08.234Z,25.48
2019-06-20T09:17:08.188Z,25.48
2019-06-20T09:18:08.180Z,25.66
2019-06-20T09:19:08.181Z,25.75
2019-06-20T09:20:08.159Z,25.78
2019-06-20T09:21:08.166Z,25.72
2019-06-20T09:22:08.174Z,25.83
2019-06-20T09:23:08.120Z,25.99
2019-06-20T09:24:08.114Z,26.09
2019-06-20T09:25:08.110Z,26.21
2019-06-20T09:26:08.102Z,26.21
2019-06-20T09:27:08.086Z,26.31
2019-06-20T09:28:08.161Z,26.19
2019-06-20T09:29:08.074Z,25.63
2019-06-20T09:30:08.062Z,25.53
2019-06-20T09:31:08.267Z,25.69
2019-06-20T09:32:08.041Z,25.88
2019-06-20T09:33:08.038Z,26.00
2019-06-20T09:34:08.006Z,25.96
2019-06-20T09:35:08.024Z,26.00
2019-06-20T09:36:08.064Z,25.85
2019-06-20T09:37:08.001Z,26.02
2019-06-20T09:38:07.991Z,26.03
2019-06-20T09:39:07.977Z,26.10
2019-06-20T09:40:07.965Z,26.18
2019-06-20T09:41:07.950Z,26.19
2019-06-20T09:42:07.938Z,26.10
2019-06-20T09:43:07.920Z,26.09
2019-06-20T09:44:07.894Z,26.09
2019-06-20T09:45:07.929Z,26.19
2019-06-20T09:46:07.902Z,26.23
2019-06-20T09:47:07.862Z,26.28
2019-06-20T09:48:07.881Z,26.38
2019-06-20T09:49:07.848Z,26.43
2019-06-20T09:50:07.855Z,26.41
2019-06-20T09:51:07.835Z,26.51
2019-06-20T09:52:07.826Z,26.60
2019-06-20T09:53:07.831Z,26.77
2019-06-20T09:54:07.821Z,26.53
2019-06-20T09:55:07.781Z,25.88
2019-06-20T09:56:07.807Z,25.93
2019-06-20T09:57:07.768Z,26.15
2019-06-20T09:58:07.761Z,26.19
2019-06-20T09:59:07.759Z,26.23
2019-06-20T10:00:10.611Z,25.99
2019-06-20T10:01:07.722Z,26.10
2019-06-20T10:02:07.696Z,26.03
2019-06-20T10:03:07.693Z,26.05
2019-06-20T10:04:07.749Z,26.03
2019-06-20T10:05:07.691Z,26.13
2019-06-20T10:06:13.927Z,26.23
2019-06-20T10:07:08.659Z,26.34
2019-06-20T10:08:07.644Z,26.44
2019-06-20T10:09:07.642Z,26.48
2019-06-20T10:10:07.642Z,26.60
2019-06-20T10:11:07.630Z,26.58
2019-06-20T10:12:07.636Z,26.44
2019-06-20T10:13:07.592Z,26.43
2019-06-20T10:14:07.585Z,26.52
2019-06-20T10:15:07.571Z,26.59
2019-06-20T10:16:07.608Z,26.63
2019-06-20T10:17:07.602Z,26.71
2019-06-20T10:18:07.550Z,27.05
2019-06-20T10:19:07.523Z,27.35
2019-06-20T10:20:07.514Z,27.52
2019-06-20T10:21:07.502Z,27.52
2019-06-20T10:22:07.479Z,27.60
2019-06-20T10:23:07.510Z,27.45
2019-06-20T10:24:07.467Z,27.33
2019-06-20T10:25:07.464Z,26.97
2019-06-20T10:26:07.451Z,26.88
2019-06-20T10:27:07.437Z,26.92
2019-06-20T10:28:07.423Z,26.83
2019-06-20T10:29:07.446Z,26.53
2019-06-20T10:30:14.452Z,26.52
2019-06-20T10:31:08.481Z,26.63
2019-06-20T10:32:07.381Z,26.62
2019-06-20T10:33:07.374Z,26.75
2019-06-20T10:34:07.376Z,26.95
2019-06-20T10:35:07.359Z,27.05
2019-06-20T10:36:07.352Z,26.74
2019-06-20T10:37:07.355Z,26.56
2019-06-20T10:38:07.318Z,26.66
2019-06-20T10:39:07.350Z,26.68
2019-06-20T10:40:07.348Z,26.48
2019-06-20T10:41:07.333Z,26.15
2019-06-20T10:42:07.313Z,25.95
2019-06-20T10:43:07.294Z,25.91
2019-06-20T10:44:07.261Z,25.96
2019-06-20T10:45:07.269Z,25.90
2019-06-20T10:46:07.350Z,25.96
2019-06-20T10:47:07.233Z,26.00
2019-06-20T10:48:07.208Z,25.96
2019-06-20T10:49:07.192Z,25.83
2019-06-20T10:50:07.236Z,25.69
2019-06-20T10:51:07.193Z,25.55
2019-06-20T10:52:07.194Z,25.46
2019-06-20T10:53:07.173Z,25.43
2019-06-20T10:54:15.402Z,25.40
2019-06-20T10:55:07.348Z,25.40
2019-06-20T10:56:07.203Z,25.41
2019-06-20T10:57:07.182Z,25.40
2019-06-20T10:58:07.281Z,25.44
2019-06-20T10:59:07.089Z,25.53
2019-06-20T11:00:07.118Z,25.14
2019-06-20T11:01:07.064Z,24.68
2019-06-20T11:02:07.390Z,24.40
2019-06-20T11:03:07.068Z,24.24
2019-06-20T11:04:07.043Z,24.38
2019-06-20T11:05:07.039Z,24.47
2019-06-20T11:06:07.083Z,24.54
2019-06-20T11:07:06.996Z,24.61
2019-06-20T11:08:07.015Z,24.74
2019-06-20T11:09:07.018Z,24.84
2019-06-20T11:10:06.977Z,24.68
2019-06-20T11:11:06.958Z,24.66
2019-06-20T11:12:06.955Z,24.70
2019-06-20T11:13:06.970Z,24.77
2019-06-20T11:14:06.934Z,24.93
2019-06-20T11:15:06.943Z,25.08
2019-06-20T11:16:06.921Z,25.17
2019-06-20T11:17:06.911Z,25.36
2019-06-20T11:18:06.880Z,25.31
2019-06-20T11:19:06.908Z,25.38
2019-06-20T11:20:06.885Z,25.26
2019-06-20T11:21:06.852Z,25.16
2019-06-20T11:22:06.841Z,25.06
2019-06-20T11:23:06.824Z,25.14
2019-06-20T11:24:06.821Z,25.29
2019-06-20T11:25:06.854Z,25.31
2019-06-20T11:26:06.845Z,25.41
2019-06-20T11:27:06.784Z,25.33
2019-06-20T11:28:06.778Z,25.53
2019-06-20T11:29:06.767Z,25.80
2019-06-20T11:30:06.751Z,25.95
2019-06-20T11:31:06.753Z,25.85
2019-06-20T11:32:06.764Z,25.95
2019-06-20T11:33:06.717Z,26.10
2019-06-20T11:34:06.715Z,26.15
2019-06-20T11:35:06.726Z,26.16
2019-06-20T11:36:06.682Z,26.31
2019-06-20T11:37:06.683Z,26.33
2019-06-20T11:38:06.677Z,26.09
2019-06-20T11:39:06.676Z,25.85
2019-06-20T11:40:06.666Z,25.68
2019-06-20T11:41:06.684Z,25.51
2019-06-20T11:42:06.628Z,25.22
2019-06-20T11:43:06.682Z,24.77
2019-06-20T11:44:06.601Z,24.47
2019-06-20T11:45:06.594Z,24.29
2019-06-20T11:46:06.631Z,24.06
2019-06-20T11:47:06.588Z,23.91
2019-06-20T11:48:06.578Z,23.88
2019-06-20T11:49:06.553Z,23.87
2019-06-20T11:50:06.540Z,23.84
2019-06-20T11:51:06.525Z,23.88
2019-06-20T11:52:06.536Z,23.93
2019-06-20T11:53:06.528Z,23.88
2019-06-20T11:54:06.548Z,23.83
2019-06-20T11:55:06.481Z,23.69
2019-06-20T11:56:06.483Z,23.66
2019-06-20T11:57:06.465Z,23.66
2019-06-20T11:58:06.501Z,23.65
2019-06-20T11:59:06.471Z,23.73
2019-06-20T12:00:06.452Z,23.87
2019-06-20T12:01:06.462Z,24.10
2019-06-20T12:02:06.410Z,24.35
2019-06-20T12:03:06.397Z,24.66
2019-06-20T12:04:09.366Z,24.86
2019-06-20T12:05:06.395Z,24.81
2019-06-20T12:06:06.376Z,24.85
2019-06-20T12:07:06.354Z,24.58
2019-06-20T12:08:06.341Z,24.48
2019-06-20T12:09:06.332Z,24.57
2019-06-20T12:10:06.373Z,24.65
2019-06-20T12:11:06.363Z,24.66
2019-06-20T12:12:06.309Z,24.74
2019-06-20T12:13:06.346Z,24.76
2019-06-20T12:14:06.278Z,24.66
2019-06-20T12:15:07.155Z,24.70
2019-06-20T12:16:06.280Z,24.78
2019-06-20T12:17:06.256Z,24.98
2019-06-20T12:18:06.246Z,25.43
2019-06-20T12:19:06.252Z,25.53
2019-06-20T12:20:06.228Z,25.65
2019-06-20T12:21:06.212Z,25.83
2019-06-20T12:22:06.196Z,25.85
2019-06-20T12:23:06.182Z,25.99
2019-06-20T12:24:08.560Z,26.09
2019-06-20T12:25:06.199Z,26.43
2019-06-20T12:26:06.152Z,26.75
2019-06-20T12:27:06.151Z,26.65
2019-06-20T12:28:06.141Z,26.58
2019-06-20T12:29:06.122Z,26.29
2019-06-20T12:30:06.110Z,26.19
2019-06-20T12:31:19.033Z,26.31
2019-06-20T12:32:09.890Z,26.48
2019-06-20T12:33:06.074Z,26.65
2019-06-20T12:34:06.087Z,26.41
2019-06-20T12:35:06.072Z,26.34
2019-06-20T12:36:06.053Z,26.28
2019-06-20T12:37:06.089Z,26.15
2019-06-20T12:38:06.018Z,26.22
2019-06-20T12:39:06.026Z,26.45
2019-06-20T12:40:06.007Z,26.63
2019-06-20T12:41:05.997Z,26.74
2019-06-20T12:42:06.002Z,26.44
2019-06-20T12:43:05.995Z,26.41
2019-06-20T12:44:05.970Z,26.44
2019-06-20T12:45:05.942Z,26.53
2019-06-20T12:46:05.941Z,26.52
2019-06-20T12:47:05.941Z,26.47
2019-06-20T12:48:05.923Z,26.10
2019-06-20T12:49:05.989Z,25.93
2019-06-20T12:50:05.925Z,25.90
2019-06-20T12:51:05.913Z,25.91
2019-06-20T12:52:05.879Z,25.96
2019-06-20T12:53:05.859Z,26.05